sensor_id;sensor_type;location;lat;lon;timestamp;pressure;altitude;pressure_sealevel;temperature;humidity
72587;BME280;60621;49.576;11.024;2023-02-07T00:00:17;100489.56;;;-1.56;71.95
72587;BME280;60621;49.576;11.024;2023-02-07T00:01:20;100485.28;;;-1.50;71.80
72587;BME280;60621;49.576;11.024;2023-02-07T00:02:21;100496.84;;;-1.53;72.29
72587;BME280;60621;49.576;11.024;2023-02-07T00:03:23;100494.50;;;-1.55;71.90
72587;BME280;60621;49.576;11.024;2023-02-07T00:04:25;100486.38;;;-1.58;72.36
72587;BME280;60621;49.576;11.024;2023-02-07T00:05:27;100490.53;;;-1.57;72.80
72587;BME280;60621;49.576;11.024;2023-02-07T00:06:31;100501.34;;;-1.60;72.22
72587;BME280;60621;49.576;11.024;2023-02-07T00:07:33;100489.56;;;-1.56;72.01
72587;BME280;60621;49.576;11.024;2023-02-07T00:08:35;100482.56;;;-1.56;72.01
72587;BME280;60621;49.576;11.024;2023-02-07T00:09:37;100487.41;;;-1.47;71.38
72587;BME280;60621;49.576;11.024;2023-02-07T00:10:38;100484.63;;;-1.46;71.28
72587;BME280;60621;49.576;11.024;2023-02-07T00:11:39;100484.69;;;-1.52;71.76
72587;BME280;60621;49.576;11.024;2023-02-07T00:12:41;100485.38;;;-1.57;71.41
72587;BME280;60621;49.576;11.024;2023-02-07T00:13:43;100487.63;;;-1.61;71.69
72587;BME280;60621;49.576;11.024;2023-02-07T00:14:45;100483.63;;;-1.75;72.11
72587;BME280;60621;49.576;11.024;2023-02-07T00:15:49;100481.72;;;-1.79;72.26
72587;BME280;60621;49.576;11.024;2023-02-07T00:16:51;100480.69;;;-1.78;71.92
72587;BME280;60621;49.576;11.024;2023-02-07T00:17:53;100481.56;;;-1.85;72.58
72587;BME280;60621;49.576;11.024;2023-02-07T00:18:55;100477.75;;;-1.82;72.71
72587;BME280;60621;49.576;11.024;2023-02-07T00:20:00;100476.03;;;-1.88;72.46
72587;BME280;60621;49.576;11.024;2023-02-07T00:21:06;100477.38;;;-1.86;72.57
72587;BME280;60621;49.576;11.024;2023-02-07T00:22:07;100477.75;;;-1.82;72.40
72587;BME280;60621;49.576;11.024;2023-02-07T00:23:09;100469.63;;;-1.86;72.49
72587;BME280;60621;49.576;11.024;2023-02-07T00:24:11;100471.53;;;-1.93;72.82
72587;BME280;60621;49.576;11.024;2023-02-07T00:25:13;100469.84;;;-1.87;72.32
72587;BME280;60621;49.576;11.024;2023-02-07T00:26:15;100477.72;;;-1.94;72.74
72587;BME280;60621;49.576;11.024;2023-02-07T00:27:17;100470.59;;;-1.98;73.39
72587;BME280;60621;49.576;11.024;2023-02-07T00:28:19;100471.16;;;-1.96;73.35
72587;BME280;60621;49.576;11.024;2023-02-07T00:29:20;100473.19;;;-1.98;72.88
72587;BME280;60621;49.576;11.024;2023-02-07T00:30:22;100485.53;;;-2.00;73.32
72587;BME280;60621;49.576;11.024;2023-02-07T00:31:30;100483.44;;;-1.92;73.16
72587;BME280;60621;49.576;11.024;2023-02-07T00:32:32;100472.88;;;-1.90;73.29
72587;BME280;60621;49.576;11.024;2023-02-07T00:33:36;100469.31;;;-1.89;73.37
72587;BME280;60621;49.576;11.024;2023-02-07T00:34:38;100472.31;;;-1.92;72.73
72587;BME280;60621;49.576;11.024;2023-02-07T00:35:40;100473.53;;;-1.95;72.88
72587;BME280;60621;49.576;11.024;2023-02-07T00:36:42;100475.13;;;-1.94;73.18
72587;BME280;60621;49.576;11.024;2023-02-07T00:37:44;100477.13;;;-1.96;73.39
72587;BME280;60621;49.576;11.024;2023-02-07T00:38:46;100480.31;;;-1.94;73.37
72587;BME280;60621;49.576;11.024;2023-02-07T00:39:48;100481.88;;;-1.93;73.12
72587;BME280;60621;49.576;11.024;2023-02-07T00:40:49;100492.22;;;-1.93;73.32
72587;BME280;60621;49.576;11.024;2023-02-07T00:41:51;100493.78;;;-1.92;72.88
72587;BME280;60621;49.576;11.024;2023-02-07T00:42:52;100500.22;;;-1.94;72.84
72587;BME280;60621;49.576;11.024;2023-02-07T00:43:54;100493.44;;;-1.95;73.43
72587;BME280;60621;49.576;11.024;2023-02-07T00:44:55;100502.78;;;-1.94;73.27
72587;BME280;60621;49.576;11.024;2023-02-07T00:45:58;100499.41;;;-1.95;72.85
72587;BME280;60621;49.576;11.024;2023-02-07T00:47:00;100500.03;;;-1.99;73.37
72587;BME280;60621;49.576;11.024;2023-02-07T00:48:01;100507.81;;;-1.99;73.68
72587;BME280;60621;49.576;11.024;2023-02-07T00:49:04;100509.59;;;-2.00;73.67
72587;BME280;60621;49.576;11.024;2023-02-07T00:50:06;100507.81;;;-1.99;73.23
72587;BME280;60621;49.576;11.024;2023-02-07T00:51:08;100513.78;;;-1.99;73.30
72587;BME280;60621;49.576;11.024;2023-02-07T00:52:10;100499.06;;;-1.98;73.28
72587;BME280;60621;49.576;11.024;2023-02-07T00:53:12;100504.38;;;-1.93;73.40
72587;BME280;60621;49.576;11.024;2023-02-07T00:54:13;100493.00;;;-1.92;72.69
72587;BME280;60621;49.576;11.024;2023-02-07T00:55:15;100497.97;;;-1.91;72.94
72587;BME280;60621;49.576;11.024;2023-02-07T00:56:16;100497.16;;;-1.91;72.92
72587;BME280;60621;49.576;11.024;2023-02-07T00:57:18;100496.59;;;-1.93;72.83
72587;BME280;60621;49.576;11.024;2023-02-07T00:58:19;100501.66;;;-1.98;72.67
72587;BME280;60621;49.576;11.024;2023-02-07T00:59:21;100501.66;;;-1.98;72.92
72587;BME280;60621;49.576;11.024;2023-02-07T01:00:23;100498.84;;;-1.97;72.86
72587;BME280;60621;49.576;11.024;2023-02-07T01:01:25;100504.09;;;-2.03;72.92
72587;BME280;60621;49.576;11.024;2023-02-07T01:02:27;100504.88;;;-2.03;73.02
72587;BME280;60621;49.576;11.024;2023-02-07T01:03:29;100502.84;;;-2.01;73.07
72587;BME280;60621;49.576;11.024;2023-02-07T01:04:31;100508.03;;;-2.01;72.97
72587;BME280;60621;49.576;11.024;2023-02-07T01:05:32;100509.59;;;-2.00;72.69
72587;BME280;60621;49.576;11.024;2023-02-07T01:06:34;100513.34;;;-1.96;72.66
72587;BME280;60621;49.576;11.024;2023-02-07T01:07:37;100509.03;;;-2.02;72.36
72587;BME280;60621;49.576;11.024;2023-02-07T01:08:39;100507.09;;;-2.07;72.60
72587;BME280;60621;49.576;11.024;2023-02-07T01:09:41;100509.34;;;-2.10;72.79
72587;BME280;60621;49.576;11.024;2023-02-07T01:10:43;100503.16;;;-2.09;73.08
72587;BME280;60621;49.576;11.024;2023-02-07T01:11:45;100504.53;;;-2.07;72.48
72587;BME280;60621;49.576;11.024;2023-02-07T01:12:47;100497.63;;;-2.13;72.95
72587;BME280;60621;49.576;11.024;2023-02-07T01:13:48;100508.03;;;-2.19;73.23
72587;BME280;60621;49.576;11.024;2023-02-07T01:14:50;100506.25;;;-2.19;73.45
72587;BME280;60621;49.576;11.024;2023-02-07T01:15:51;100498.94;;;-2.22;73.47
72587;BME280;60621;49.576;11.024;2023-02-07T01:16:53;100494.31;;;-2.20;73.53
72587;BME280;60621;49.576;11.024;2023-02-07T01:17:54;100498.16;;;-2.22;73.43
72587;BME280;60621;49.576;11.024;2023-02-07T01:18:57;100501.56;;;-2.28;73.62
72587;BME280;60621;49.576;11.024;2023-02-07T01:19:58;100506.59;;;-2.34;73.71
72587;BME280;60621;49.576;11.024;2023-02-07T01:21:00;100497.88;;;-2.33;73.95
72587;BME280;60621;49.576;11.024;2023-02-07T01:22:01;100495.06;;;-2.31;74.07
72587;BME280;60621;49.576;11.024;2023-02-07T01:23:05;100487.53;;;-2.33;74.21
72587;BME280;60621;49.576;11.024;2023-02-07T01:24:07;100496.63;;;-2.30;73.89
72587;BME280;60621;49.576;11.024;2023-02-07T01:25:09;100491.81;;;-2.26;73.56
72587;BME280;60621;49.576;11.024;2023-02-07T01:26:11;100480.47;;;-2.25;73.76
72587;BME280;60621;49.576;11.024;2023-02-07T01:27:13;100490.25;;;-2.27;73.52
72587;BME280;60621;49.576;11.024;2023-02-07T01:28:14;100491.47;;;-2.30;73.60
72587;BME280;60621;49.576;11.024;2023-02-07T01:29:16;100493.03;;;-2.29;73.73
72587;BME280;60621;49.576;11.024;2023-02-07T01:30:17;100489.44;;;-2.28;73.47
72587;BME280;60621;49.576;11.024;2023-02-07T01:31:20;100481.13;;;-2.30;73.14
72587;BME280;60621;49.576;11.024;2023-02-07T01:32:22;100489.88;;;-2.31;73.60
72587;BME280;60621;49.576;11.024;2023-02-07T01:33:24;100499.44;;;-2.32;73.73
72587;BME280;60621;49.576;11.024;2023-02-07T01:34:25;100505.81;;;-2.34;73.62
72587;BME280;60621;49.576;11.024;2023-02-07T01:35:27;100500.91;;;-2.42;73.39
72587;BME280;60621;49.576;11.024;2023-02-07T01:36:29;100502.25;;;-2.51;74.15
72587;BME280;60621;49.576;11.024;2023-02-07T01:37:31;100506.88;;;-2.60;74.21
72587;BME280;60621;49.576;11.024;2023-02-07T01:38:32;100507.69;;;-2.60;74.80
72587;BME280;60621;49.576;11.024;2023-02-07T01:39:34;100502.06;;;-2.57;74.35
72587;BME280;60621;49.576;11.024;2023-02-07T01:40:36;100496.09;;;-2.57;74.54
72587;BME280;60621;49.576;11.024;2023-02-07T01:41:38;100491.69;;;-2.50;74.27
72587;BME280;60621;49.576;11.024;2023-02-07T01:42:39;100488.31;;;-2.50;74.13
72587;BME280;60621;49.576;11.024;2023-02-07T01:45:46;100504.19;;;-2.47;73.53
72587;BME280;60621;49.576;11.024;2023-02-07T01:46:50;100502.38;;;-2.46;73.46
72587;BME280;60621;49.576;11.024;2023-02-07T01:47:52;100487.44;;;-2.44;73.70
72587;BME280;60621;49.576;11.024;2023-02-07T01:48:57;100481.13;;;-2.48;73.56
72587;BME280;60621;49.576;11.024;2023-02-07T01:50:00;100480.56;;;-2.50;73.83
72587;BME280;60621;49.576;11.024;2023-02-07T01:51:05;100478.38;;;-2.53;73.73
72587;BME280;60621;49.576;11.024;2023-02-07T01:52:10;100475.88;;;-2.60;73.75
72587;BME280;60621;49.576;11.024;2023-02-07T01:53:15;100466.19;;;-2.65;73.95
72587;BME280;60621;49.576;11.024;2023-02-07T01:54:18;100476.53;;;-2.65;74.44
72587;BME280;60621;49.576;11.024;2023-02-07T01:55:25;100470.13;;;-2.62;73.99
72587;BME280;60621;49.576;11.024;2023-02-07T01:56:29;100478.88;;;-2.63;73.91
72587;BME280;60621;49.576;11.024;2023-02-07T01:57:32;100478.09;;;-2.64;74.21
72587;BME280;60621;49.576;11.024;2023-02-07T01:58:35;100464.44;;;-2.71;73.89
72587;BME280;60621;49.576;11.024;2023-02-07T01:59:38;100472.34;;;-2.66;74.33
72587;BME280;60621;49.576;11.024;2023-02-07T02:00:45;100462.38;;;-2.62;74.06
72587;BME280;60621;49.576;11.024;2023-02-07T02:01:47;100466.97;;;-2.64;74.32
72587;BME280;60621;49.576;11.024;2023-02-07T02:02:49;100462.03;;;-2.66;74.54
72587;BME280;60621;49.576;11.024;2023-02-07T02:03:53;100462.03;;;-2.66;74.42
72587;BME280;60621;49.576;11.024;2023-02-07T02:04:56;100461.00;;;-2.65;74.10
72587;BME280;60621;49.576;11.024;2023-02-07T02:05:58;100453.03;;;-2.63;74.01
72587;BME280;60621;49.576;11.024;2023-02-07T02:07:00;100469.19;;;-2.68;73.64
72587;BME280;60621;49.576;11.024;2023-02-07T02:08:02;100465.03;;;-2.69;74.26
72587;BME280;60621;49.576;11.024;2023-02-07T02:09:12;100455.47;;;-2.68;74.01
72587;BME280;60621;49.576;11.024;2023-02-07T02:10:18;100464.81;;;-2.67;74.14
72587;BME280;60621;49.576;11.024;2023-02-07T02:13:17;100464.44;;;-2.71;73.65
72587;BME280;60621;49.576;11.024;2023-02-07T02:16:18;100479.88;;;-2.64;73.63
72587;BME280;60621;49.576;11.024;2023-02-07T02:18:59;100485.75;;;-2.75;74.09
72587;BME280;60621;49.576;11.024;2023-02-07T02:21:42;100477.94;;;-2.69;74.15
72587;BME280;60621;49.576;11.024;2023-02-07T02:23:01;100479.16;;;-2.71;73.94
72587;BME280;60621;49.576;11.024;2023-02-07T02:28:41;100495.09;;;-2.74;74.25
72587;BME280;60621;49.576;11.024;2023-02-07T02:33:00;100498.25;;;-2.72;74.15
72587;BME280;60621;49.576;11.024;2023-02-07T02:35:44;100490.72;;;-2.74;74.26
72587;BME280;60621;49.576;11.024;2023-02-07T02:37:00;100499.63;;;-2.70;74.83
72587;BME280;60621;49.576;11.024;2023-02-07T02:38:19;100487.50;;;-2.69;74.51
72587;BME280;60621;49.576;11.024;2023-02-07T02:39:29;100490.28;;;-2.71;74.75
72587;BME280;60621;49.576;11.024;2023-02-07T02:40:54;100488.69;;;-2.72;74.59
72587;BME280;60621;49.576;11.024;2023-02-07T02:42:03;100480.16;;;-2.72;74.60
72587;BME280;60621;49.576;11.024;2023-02-07T02:44:48;100479.16;;;-2.71;74.70
72587;BME280;60621;49.576;11.024;2023-02-07T02:45:58;100466.81;;;-2.69;74.86
72587;BME280;60621;49.576;11.024;2023-02-07T02:47:02;100475.13;;;-2.67;74.60
72587;BME280;60621;49.576;11.024;2023-02-07T02:48:06;100470.19;;;-2.69;74.06
72587;BME280;60621;49.576;11.024;2023-02-07T02:49:12;100466.22;;;-2.71;74.18
72587;BME280;60621;49.576;11.024;2023-02-07T02:50:21;100468.03;;;-2.72;74.03
72587;BME280;60621;49.576;11.024;2023-02-07T02:51:23;100469.59;;;-2.71;74.07
72587;BME280;60621;49.576;11.024;2023-02-07T02:52:27;100469.03;;;-2.73;73.97
72587;BME280;60621;49.576;11.024;2023-02-07T02:53:54;100465.28;;;-2.77;73.98
72587;BME280;60621;49.576;11.024;2023-02-07T02:54:55;100476.50;;;-2.83;74.06
72587;BME280;60621;49.576;11.024;2023-02-07T02:57:50;100452.66;;;-2.85;74.50
72587;BME280;60621;49.576;11.024;2023-02-07T03:04:55;100447.13;;;-2.89;74.52
72587;BME280;60621;49.576;11.024;2023-02-07T03:06:16;100453.72;;;-2.93;74.67
72587;BME280;60621;49.576;11.024;2023-02-07T03:10:28;100454.41;;;-3.04;74.81
72587;BME280;60621;49.576;11.024;2023-02-07T03:11:39;100455.00;;;-3.02;74.45
72587;BME280;60621;49.576;11.024;2023-02-07T03:12:56;100455.78;;;-3.01;75.12
72587;BME280;60621;49.576;11.024;2023-02-07T03:14:08;100454.41;;;-3.04;75.22
72587;BME280;60621;49.576;11.024;2023-02-07T03:16:27;100451.31;;;-3.13;75.89
72587;BME280;60621;49.576;11.024;2023-02-07T03:17:35;100453.28;;;-3.08;75.59
72587;BME280;60621;49.576;11.024;2023-02-07T03:18:41;100453.69;;;-3.11;75.61
72587;BME280;60621;49.576;11.024;2023-02-07T03:19:58;100454.25;;;-3.09;75.70
72587;BME280;60621;49.576;11.024;2023-02-07T03:21:11;100451.47;;;-3.07;75.58
72587;BME280;60621;49.576;11.024;2023-02-07T03:22:18;100442.97;;;-3.15;74.93
72587;BME280;60621;49.576;11.024;2023-02-07T03:23:22;100441.81;;;-3.19;75.30
72587;BME280;60621;49.576;11.024;2023-02-07T03:24:28;100442.25;;;-3.22;75.31
72587;BME280;60621;49.576;11.024;2023-02-07T03:25:31;100452.00;;;-3.24;75.11
72587;BME280;60621;49.576;11.024;2023-02-07T03:26:34;100445.09;;;-3.30;75.42
72587;BME280;60621;49.576;11.024;2023-02-07T03:27:37;100447.69;;;-3.30;75.85
72587;BME280;60621;49.576;11.024;2023-02-07T03:28:40;100449.47;;;-3.30;75.66
72587;BME280;60621;49.576;11.024;2023-02-07T03:29:45;100457.06;;;-3.36;75.88
72587;BME280;60621;49.576;11.024;2023-02-07T03:30:47;100454.25;;;-3.34;75.84
72587;BME280;60621;49.576;11.024;2023-02-07T03:31:54;100445.31;;;-3.31;75.69
72587;BME280;60621;49.576;11.024;2023-02-07T03:33:01;100454.63;;;-3.30;75.79
72587;BME280;60621;49.576;11.024;2023-02-07T03:34:10;100460.75;;;-3.25;75.38
72587;BME280;60621;49.576;11.024;2023-02-07T03:36:23;100459.78;;;-3.30;75.82
72587;BME280;60621;49.576;11.024;2023-02-07T03:37:40;100458.75;;;-3.23;74.96
72587;BME280;60621;49.576;11.024;2023-02-07T03:38:42;100456.38;;;-3.24;75.05
72587;BME280;60621;49.576;11.024;2023-02-07T03:39:44;100460.97;;;-3.26;75.08
72587;BME280;60621;49.576;11.024;2023-02-07T03:40:48;100456.44;;;-3.31;75.14
72587;BME280;60621;49.576;11.024;2023-02-07T03:41:54;100456.28;;;-3.36;75.24
72587;BME280;60621;49.576;11.024;2023-02-07T03:43:02;100455.09;;;-3.40;75.81
72587;BME280;60621;49.576;11.024;2023-02-07T03:44:06;100450.31;;;-3.37;75.56
72587;BME280;60621;49.576;11.024;2023-02-07T03:45:14;100458.84;;;-3.36;75.46
72587;BME280;60621;49.576;11.024;2023-02-07T03:46:17;100456.75;;;-3.46;75.39
72587;BME280;60621;49.576;11.024;2023-02-07T03:47:19;100454.41;;;-3.54;75.33
72587;BME280;60621;49.576;11.024;2023-02-07T03:48:21;100460.19;;;-3.58;75.89
72587;BME280;60621;49.576;11.024;2023-02-07T03:49:22;100461.19;;;-3.59;76.28
72587;BME280;60621;49.576;11.024;2023-02-07T03:50:24;100460.44;;;-3.67;76.32
72587;BME280;60621;49.576;11.024;2023-02-07T03:51:25;100465.59;;;-3.67;76.53
72587;BME280;60621;49.576;11.024;2023-02-07T03:52:27;100465.75;;;-3.62;76.39
72587;BME280;60621;49.576;11.024;2023-02-07T03:53:28;100474.34;;;-3.68;76.03
72587;BME280;60621;49.576;11.024;2023-02-07T03:54:30;100478.69;;;-3.68;76.22
72587;BME280;60621;49.576;11.024;2023-02-07T03:55:32;100479.53;;;-3.74;75.98
72587;BME280;60621;49.576;11.024;2023-02-07T03:56:33;100483.69;;;-3.73;76.21
72587;BME280;60621;49.576;11.024;2023-02-07T03:57:36;100486.09;;;-3.78;76.28
72587;BME280;60621;49.576;11.024;2023-02-07T03:58:37;100483.34;;;-3.83;76.25
72587;BME280;60621;49.576;11.024;2023-02-07T03:59:39;100492.09;;;-3.91;76.34
72587;BME280;60621;49.576;11.024;2023-02-07T04:00:40;100481.44;;;-4.01;76.83
72587;BME280;60621;49.576;11.024;2023-02-07T04:01:42;100487.38;;;-4.01;77.49
72587;BME280;60621;49.576;11.024;2023-02-07T04:02:43;100478.31;;;-4.10;77.09
72587;BME280;60621;49.576;11.024;2023-02-07T04:03:45;100475.16;;;-4.12;77.61
72587;BME280;60621;49.576;11.024;2023-02-07T04:04:46;100477.13;;;-4.14;77.36
72587;BME280;60621;49.576;11.024;2023-02-07T04:05:48;100476.13;;;-4.13;77.79
72587;BME280;60621;49.576;11.024;2023-02-07T04:06:50;100474.53;;;-4.07;77.66
72587;BME280;60621;49.576;11.024;2023-02-07T04:07:52;100480.66;;;-4.02;77.93
72587;BME280;60621;49.576;11.024;2023-02-07T04:08:53;100478.88;;;-4.01;77.28
72587;BME280;60621;49.576;11.024;2023-02-07T04:09:55;100476.06;;;-4.00;77.48
72587;BME280;60621;49.576;11.024;2023-02-07T04:11:01;100477.66;;;-3.99;77.27
72587;BME280;60621;49.576;11.024;2023-02-07T04:12:04;100469.38;;;-4.07;77.28
72587;BME280;60621;49.576;11.024;2023-02-07T04:13:06;100465.19;;;-4.08;77.21
72587;BME280;60621;49.576;11.024;2023-02-07T04:14:08;100466.81;;;-4.07;77.46
72587;BME280;60621;49.576;11.024;2023-02-07T04:15:09;100476.69;;;-3.98;76.97
72587;BME280;60621;49.576;11.024;2023-02-07T04:16:11;100468.16;;;-3.98;76.54
72587;BME280;60621;49.576;11.024;2023-02-07T04:17:13;100467.56;;;-4.00;76.51
72587;BME280;60621;49.576;11.024;2023-02-07T04:18:14;100467.78;;;-4.02;76.62
72587;BME280;60621;49.576;11.024;2023-02-07T04:19:16;100474.53;;;-4.07;76.76
72587;BME280;60621;49.576;11.024;2023-02-07T04:20:18;100468.94;;;-3.98;76.99
72587;BME280;60621;49.576;11.024;2023-02-07T04:21:19;100465.75;;;-4.00;76.85
72587;BME280;60621;49.576;11.024;2023-02-07T04:22:21;100466.59;;;-4.06;76.92
72587;BME280;60621;49.576;11.024;2023-02-07T04:23:22;100462.81;;;-4.03;77.11
72587;BME280;60621;49.576;11.024;2023-02-07T04:24:23;100454.66;;;-4.00;76.87
72587;BME280;60621;49.576;11.024;2023-02-07T04:25:25;100463.00;;;-4.05;76.77
72587;BME280;60621;49.576;11.024;2023-02-07T04:26:26;100456.28;;;-4.06;76.99
72587;BME280;60621;49.576;11.024;2023-02-07T04:27:28;100459.03;;;-4.01;77.38
72587;BME280;60621;49.576;11.024;2023-02-07T04:28:29;100458.03;;;-4.00;76.96
72587;BME280;60621;49.576;11.024;2023-02-07T04:29:31;100456.66;;;-4.02;77.18
72587;BME280;60621;49.576;11.024;2023-02-07T04:30:33;100454.28;;;-4.04;77.03
72587;BME280;60621;49.576;11.024;2023-02-07T04:31:34;100451.50;;;-4.02;77.10
72587;BME280;60621;49.576;11.024;2023-02-07T04:32:38;100450.72;;;-4.03;77.07
72587;BME280;60621;49.576;11.024;2023-02-07T04:33:40;100454.66;;;-4.00;76.71
72587;BME280;60621;49.576;11.024;2023-02-07T04:34:41;100453.13;;;-4.08;76.69
72587;BME280;60621;49.576;11.024;2023-02-07T04:35:43;100454.09;;;-4.09;76.90
72587;BME280;60621;49.576;11.024;2023-02-07T04:36:45;100456.50;;;-4.07;77.68
72587;BME280;60621;49.576;11.024;2023-02-07T04:37:46;100460.25;;;-4.03;77.11
72587;BME280;60621;49.576;11.024;2023-02-07T04:38:48;100458.03;;;-4.00;77.14
72587;BME280;60621;49.576;11.024;2023-02-07T04:39:49;100457.03;;;-3.99;76.64
72587;BME280;60621;49.576;11.024;2023-02-07T04:40:51;100452.88;;;-4.00;76.62
72587;BME280;60621;49.576;11.024;2023-02-07T04:41:53;100461.59;;;-4.01;76.64
72587;BME280;60621;49.576;11.024;2023-02-07T04:42:55;100458.63;;;-3.98;76.18
72587;BME280;60621;49.576;11.024;2023-02-07T04:43:56;100457.03;;;-3.99;75.84
72587;BME280;60621;49.576;11.024;2023-02-07T04:44:58;100462.00;;;-4.04;75.95
72587;BME280;60621;49.576;11.024;2023-02-07T04:46:00;100454.50;;;-4.05;76.64
72587;BME280;60621;49.576;11.024;2023-02-07T04:47:02;100457.06;;;-4.05;76.47
72587;BME280;60621;49.576;11.024;2023-02-07T04:48:04;100460.03;;;-4.08;76.18
72587;BME280;60621;49.576;11.024;2023-02-07T04:49:05;100461.84;;;-4.09;76.69
72587;BME280;60621;49.576;11.024;2023-02-07T04:50:07;100453.69;;;-4.06;76.53
72587;BME280;60621;49.576;11.024;2023-02-07T04:51:10;100465.59;;;-4.05;76.57
72587;BME280;60621;49.576;11.024;2023-02-07T04:52:11;100464.41;;;-4.09;76.46
72587;BME280;60621;49.576;11.024;2023-02-07T04:53:13;100465.00;;;-4.07;76.41
72587;BME280;60621;49.576;11.024;2023-02-07T04:54:15;100460.28;;;-4.17;76.21
72587;BME280;60621;49.576;11.024;2023-02-07T04:55:16;100461.31;;;-4.18;76.84
72587;BME280;60621;49.576;11.024;2023-02-07T04:56:18;100463.88;;;-4.18;76.50
72587;BME280;60621;49.576;11.024;2023-02-07T04:57:20;100460.31;;;-4.23;76.31
72587;BME280;60621;49.576;11.024;2023-02-07T04:58:22;100467.06;;;-4.29;76.38
72587;BME280;60621;49.576;11.024;2023-02-07T04:59:23;100467.50;;;-4.32;77.01
72587;BME280;60621;49.576;11.024;2023-02-07T05:00:25;100473.84;;;-4.34;77.31
72587;BME280;60621;49.576;11.024;2023-02-07T05:01:26;100464.31;;;-4.34;77.23
72587;BME280;60621;49.576;11.024;2023-02-07T05:02:28;100478.59;;;-4.38;77.00
72587;BME280;60621;49.576;11.024;2023-02-07T05:03:29;100477.81;;;-4.39;76.77
72587;BME280;60621;49.576;11.024;2023-02-07T05:04:31;100475.44;;;-4.40;77.14
72587;BME280;60621;49.576;11.024;2023-02-07T05:05:33;100476.00;;;-4.38;77.28
72587;BME280;60621;49.576;11.024;2023-02-07T05:06:34;100471.84;;;-4.32;77.29
72587;BME280;60621;49.576;11.024;2023-02-07T05:07:36;100477.59;;;-4.30;77.40
72587;BME280;60621;49.576;11.024;2023-02-07T05:08:37;100465.09;;;-4.27;77.33
72587;BME280;60621;49.576;11.024;2023-02-07T05:09:39;100467.06;;;-4.22;77.62
72587;BME280;60621;49.576;11.024;2023-02-07T05:10:40;100468.25;;;-4.25;76.93
72587;BME280;60621;49.576;11.024;2023-02-07T05:11:42;100465.88;;;-4.26;76.66
72587;BME280;60621;49.576;11.024;2023-02-07T05:12:44;100467.69;;;-4.27;77.08
72587;BME280;60621;49.576;11.024;2023-02-07T05:13:45;100470.88;;;-4.31;77.08
72587;BME280;60621;49.576;11.024;2023-02-07T05:14:47;100475.22;;;-4.39;77.08
72587;BME280;60621;49.576;11.024;2023-02-07T05:15:48;100462.13;;;-4.37;77.37
72587;BME280;60621;49.576;11.024;2023-02-07T05:16:50;100470.88;;;-4.38;77.71
72587;BME280;60621;49.576;11.024;2023-02-07T05:17:52;100467.69;;;-4.33;77.78
72587;BME280;60621;49.576;11.024;2023-02-07T05:18:54;100471.66;;;-4.38;77.14
72587;BME280;60621;49.576;11.024;2023-02-07T05:19:55;100479.59;;;-4.39;76.95
72587;BME280;60621;49.576;11.024;2023-02-07T05:20:57;100471.47;;;-4.43;77.31
72587;BME280;60621;49.576;11.024;2023-02-07T05:21:59;100473.69;;;-4.46;77.42
72587;BME280;60621;49.576;11.024;2023-02-07T05:23:00;100474.03;;;-4.43;77.50
72587;BME280;60621;49.576;11.024;2023-02-07T05:24:02;100473.47;;;-4.45;77.91
72587;BME280;60621;49.576;11.024;2023-02-07T05:25:04;100475.44;;;-4.40;77.80
72587;BME280;60621;49.576;11.024;2023-02-07T05:26:06;100462.78;;;-4.48;77.30
72587;BME280;60621;49.576;11.024;2023-02-07T05:27:07;100463.38;;;-4.46;78.37
72587;BME280;60621;49.576;11.024;2023-02-07T05:28:10;100461.38;;;-4.44;77.67
72587;BME280;60621;49.576;11.024;2023-02-07T05:29:11;100460.97;;;-4.41;77.53
72587;BME280;60621;49.576;11.024;2023-02-07T05:30:13;100464.13;;;-4.39;77.53
72587;BME280;60621;49.576;11.024;2023-02-07T05:31:15;100461.56;;;-4.39;77.81
72587;BME280;60621;49.576;11.024;2023-02-07T05:32:17;100463.91;;;-4.38;77.71
72587;BME280;60621;49.576;11.024;2023-02-07T05:33:38;100460.16;;;-4.42;76.98
72587;BME280;60621;49.576;11.024;2023-02-07T05:34:39;100467.09;;;-4.42;77.41
72587;BME280;60621;49.576;11.024;2023-02-07T05:35:43;100463.94;;;-4.44;77.08
72587;BME280;60621;49.576;11.024;2023-02-07T05:36:44;100457.41;;;-4.47;76.68
72587;BME280;60621;49.576;11.024;2023-02-07T05:37:46;100464.56;;;-4.49;76.93
72587;BME280;60621;49.576;11.024;2023-02-07T05:38:47;100462.38;;;-4.52;76.75
72587;BME280;60621;49.576;11.024;2023-02-07T05:39:49;100476.25;;;-4.53;77.10
72587;BME280;60621;49.576;11.024;2023-02-07T05:40:50;100478.41;;;-4.43;77.03
72587;BME280;60621;49.576;11.024;2023-02-07T05:41:52;100474.25;;;-4.44;76.74
72587;BME280;60621;49.576;11.024;2023-02-07T05:42:53;100476.25;;;-4.53;76.86
72587;BME280;60621;49.576;11.024;2023-02-07T05:43:55;100481.81;;;-4.56;76.66
72587;BME280;60621;49.576;11.024;2023-02-07T05:44:56;100483.63;;;-4.63;76.99
72587;BME280;60621;49.576;11.024;2023-02-07T05:45:58;100486.41;;;-4.65;77.72
72587;BME280;60621;49.576;11.024;2023-02-07T05:46:59;100484.63;;;-4.64;77.85
72587;BME280;60621;49.576;11.024;2023-02-07T05:48:01;100481.03;;;-4.63;78.13
72587;BME280;60621;49.576;11.024;2023-02-07T05:49:02;100496.28;;;-4.61;77.87
72587;BME280;60621;49.576;11.024;2023-02-07T05:50:05;100494.50;;;-4.61;78.07
72587;BME280;60621;49.576;11.024;2023-02-07T05:51:06;100496.50;;;-4.63;77.73
72587;BME280;60621;49.576;11.024;2023-02-07T05:52:08;100508.78;;;-4.65;77.62
72587;BME280;60621;49.576;11.024;2023-02-07T05:53:10;100506.41;;;-4.67;77.85
72587;BME280;60621;49.576;11.024;2023-02-07T05:54:11;100502.66;;;-4.64;77.46
72587;BME280;60621;49.576;11.024;2023-02-07T05:55:14;100513.13;;;-4.59;77.77
72587;BME280;60621;49.576;11.024;2023-02-07T05:56:15;100513.91;;;-4.52;78.15
72587;BME280;60621;49.576;11.024;2023-02-07T05:57:17;100509.53;;;-4.51;77.64
72587;BME280;60621;49.576;11.024;2023-02-07T05:58:18;100512.13;;;-4.51;77.21
72587;BME280;60621;49.576;11.024;2023-02-07T05:59:20;100510.16;;;-4.49;77.76